createdAt,value
2024-02-29T00:01:54.864Z,22.28
2024-02-29T00:04:28.552Z,23.33
2024-02-29T00:07:02.041Z,24.00
2024-02-29T00:20:15.841Z,27.23
2024-02-29T00:22:49.105Z,27.65
2024-02-29T00:25:22.822Z,28.28
2024-02-29T00:27:57.992Z,27.57
2024-02-29T00:30:31.824Z,27.86
2024-02-29T00:47:08.786Z,27.81
2024-02-29T00:49:48.805Z,27.14
2024-02-29T00:52:22.082Z,27.97
2024-02-29T00:54:55.827Z,28.42
2024-02-29T00:57:29.083Z,28.59
2024-02-29T01:00:02.813Z,28.44
2024-02-29T01:02:37.997Z,27.53
2024-02-29T01:12:02.030Z,28.14
2024-02-29T01:14:35.038Z,27.53
2024-02-29T01:17:14.835Z,28.22
2024-02-29T01:19:49.972Z,27.66
2024-02-29T01:22:23.869Z,28.58
2024-02-29T01:24:57.264Z,28.71
2024-02-29T01:27:30.837Z,28.41
2024-02-29T01:40:42.799Z,29.23
2024-02-29T01:43:16.162Z,28.87
2024-02-29T01:45:49.854Z,29.23
2024-02-29T01:48:23.266Z,29.56
2024-02-29T01:50:56.823Z,30.17
2024-02-29T02:07:33.770Z,32.84
2024-02-29T02:10:14.952Z,33.98
2024-02-29T02:12:48.120Z,33.66
2024-02-29T02:15:22.123Z,33.83
2024-02-29T02:17:56.082Z,34.26
2024-02-29T02:20:31.824Z,33.29
2024-02-29T02:33:41.820Z,34.75
2024-02-29T02:36:16.978Z,34.00
2024-02-29T02:38:50.814Z,34.14
2024-02-29T02:41:24.044Z,34.22
2024-02-29T02:43:57.790Z,32.41
2024-02-29T02:46:31.073Z,32.31
2024-02-29T02:59:21.759Z,18.10
2024-02-29T03:02:01.818Z,16.01
2024-02-29T03:04:35.108Z,15.20
2024-02-29T03:07:08.852Z,15.22
2024-02-29T03:09:42.117Z,13.95
2024-02-29T03:12:16.789Z,13.83
2024-02-29T03:25:40.781Z,12.75
2024-02-29T03:28:14.123Z,12.91
2024-02-29T03:30:47.832Z,12.19
2024-02-29T03:33:21.082Z,12.09
2024-02-29T03:35:54.806Z,11.60
2024-02-29T03:38:28.153Z,11.46
2024-02-29T03:41:03.812Z,11.38
2024-02-29T03:54:13.797Z,11.48
2024-02-29T03:56:48.983Z,12.47
2024-02-29T03:59:22.770Z,12.40
2024-02-29T04:01:56.148Z,12.43
2024-02-29T04:04:29.796Z,12.47
2024-02-29T04:07:03.050Z,12.40
2024-02-29T04:19:53.763Z,11.91
2024-02-29T04:22:34.079Z,11.85
2024-02-29T04:25:08.422Z,11.89
2024-02-29T04:27:41.808Z,11.60
2024-02-29T04:30:15.358Z,12.27
2024-02-29T04:32:48.861Z,12.59
2024-02-29T04:46:00.831Z,13.75
2024-02-29T04:48:34.088Z,13.34
2024-02-29T04:51:07.781Z,13.24
2024-02-29T04:54:01.286Z,13.14
2024-02-29T04:56:41.802Z,13.26
2024-02-29T04:59:15.302Z,13.84
2024-02-29T05:01:50.961Z,13.73
2024-02-29T05:15:01.800Z,14.38
2024-02-29T05:17:36.999Z,15.14
2024-02-29T05:20:11.794Z,14.87
2024-02-29T05:22:45.125Z,14.86
2024-02-29T05:25:19.151Z,14.38
2024-02-29T05:27:53.073Z,13.67
2024-02-29T05:40:43.767Z,12.88
2024-02-29T05:43:23.837Z,12.07
2024-02-29T05:45:57.049Z,11.75
2024-02-29T05:48:30.832Z,11.64
2024-02-29T05:51:05.172Z,12.30
2024-02-29T06:07:20.792Z,10.47
2024-02-29T06:09:54.052Z,10.72
2024-02-29T06:12:27.771Z,10.98
2024-02-29T06:15:01.298Z,10.74
2024-02-29T06:17:34.796Z,10.61
2024-02-29T06:20:10.050Z,10.27
2024-02-29T06:22:47.787Z,10.50
2024-02-29T06:32:56.769Z,10.48
2024-02-29T06:35:36.762Z,10.96
2024-02-29T06:38:12.025Z,10.11
2024-02-29T06:40:45.768Z,10.56
2024-02-29T06:43:19.279Z,10.33
2024-02-29T06:45:54.787Z,10.85
2024-02-29T06:59:40.778Z,10.86
2024-02-29T07:02:14.062Z,10.73
2024-02-29T07:04:47.850Z,11.41
2024-02-29T07:07:21.102Z,11.22
2024-02-29T07:09:54.795Z,11.28
2024-02-29T07:12:28.009Z,11.32
2024-02-29T07:28:43.806Z,11.80
2024-02-29T07:31:17.164Z,11.82
2024-02-29T07:33:50.953Z,12.46
2024-02-29T07:36:24.029Z,11.87
2024-02-29T07:38:57.767Z,12.56
2024-02-29T07:41:31.064Z,12.54
2024-02-29T07:54:21.757Z,13.42
2024-02-29T07:57:01.774Z,13.23
2024-02-29T07:59:34.982Z,13.67
2024-02-29T08:02:08.901Z,13.58
2024-02-29T08:04:42.065Z,13.83
2024-02-29T08:07:15.877Z,14.05
2024-02-29T08:20:27.778Z,14.63
2024-02-29T08:23:01.037Z,14.45
2024-02-29T08:25:34.742Z,14.08
2024-02-29T08:28:08.119Z,14.39
2024-02-29T08:30:41.791Z,14.63
2024-02-29T08:33:15.106Z,14.24
2024-02-29T08:46:41.731Z,15.14
2024-02-29T08:49:21.782Z,14.67
2024-02-29T08:51:55.083Z,14.43
2024-02-29T08:54:28.764Z,14.76
2024-02-29T08:57:02.050Z,14.56
2024-02-29T08:59:35.766Z,14.22
2024-02-29T09:02:11.137Z,14.79
2024-02-29T09:14:59.710Z,14.08
2024-02-29T09:17:41.780Z,13.90
2024-02-29T09:20:15.269Z,14.06
2024-02-29T09:22:48.734Z,14.14
2024-02-29T09:25:22.362Z,14.23
2024-02-29T09:27:55.814Z,14.40
2024-02-29T09:41:18.833Z,16.26
2024-02-29T09:44:03.538Z,16.66
2024-02-29T09:46:36.756Z,17.75
2024-02-29T09:49:10.083Z,17.10
2024-02-29T09:51:46.781Z,17.40
2024-02-29T10:08:23.714Z,17.95
2024-02-29T10:11:03.799Z,17.44
2024-02-29T10:13:39.190Z,17.93
2024-02-29T10:16:13.849Z,17.23
2024-02-29T10:18:47.014Z,16.87
2024-02-29T10:21:20.745Z,17.03
2024-02-29T10:34:32.772Z,17.04
2024-02-29T10:37:06.224Z,16.21
2024-02-29T10:39:39.906Z,16.61
2024-02-29T10:42:13.584Z,16.32
2024-02-29T10:44:51.935Z,16.67
2024-02-29T10:47:30.453Z,17.28
2024-02-29T11:00:27.715Z,17.09
2024-02-29T11:03:08.752Z,16.89
2024-02-29T11:05:45.343Z,16.95
2024-02-29T11:08:25.714Z,17.73
2024-02-29T11:11:00.182Z,17.60
2024-02-29T11:13:34.719Z,17.46
2024-02-29T11:16:11.905Z,17.68
2024-02-29T11:29:16.723Z,18.45
2024-02-29T11:32:02.738Z,18.17
2024-02-29T11:34:36.018Z,18.13
2024-02-29T11:37:12.781Z,18.21
2024-02-29T11:39:46.187Z,18.23
2024-02-29T11:42:19.789Z,18.80
2024-02-29T11:55:31.757Z,19.15
2024-02-29T11:58:05.466Z,19.99
2024-02-29T12:00:38.814Z,21.36
2024-02-29T12:03:12.742Z,22.28
2024-02-29T12:05:45.737Z,23.54
2024-02-29T12:08:19.676Z,23.47
2024-02-29T12:21:23.715Z,22.11
2024-02-29T12:24:03.710Z,22.33
2024-02-29T12:26:37.409Z,21.37
2024-02-29T12:29:12.731Z,21.48
2024-02-29T12:31:46.046Z,20.82
2024-02-29T12:34:19.762Z,21.56
2024-02-29T12:36:56.257Z,20.25
2024-02-29T12:49:51.679Z,20.99
2024-02-29T12:52:33.976Z,21.10
2024-02-29T12:55:09.276Z,20.95
2024-02-29T12:57:42.753Z,20.46
2024-02-29T13:00:21.593Z,20.76
2024-02-29T13:03:01.710Z,20.89
2024-02-29T13:16:13.838Z,23.64
2024-02-29T13:18:46.908Z,24.17
2024-02-29T13:21:26.729Z,24.11
2024-02-29T13:24:00.000Z,24.26
2024-02-29T13:26:33.763Z,25.43
2024-02-29T13:43:10.693Z,24.97
2024-02-29T13:45:50.743Z,24.86
2024-02-29T13:48:24.896Z,25.55
2024-02-29T13:50:58.735Z,25.34
2024-02-29T13:53:31.986Z,25.45
2024-02-29T13:56:06.009Z,25.74
2024-02-29T14:09:18.708Z,25.10
2024-02-29T14:11:51.990Z,25.32
2024-02-29T14:14:25.700Z,24.83
2024-02-29T14:16:59.036Z,25.56
2024-02-29T14:19:32.768Z,24.67
2024-02-29T14:22:06.073Z,24.96
2024-02-29T14:34:56.680Z,24.81
2024-02-29T14:37:36.695Z,25.44
2024-02-29T14:40:11.372Z,25.41
2024-02-29T14:42:44.760Z,24.58
2024-02-29T14:45:17.947Z,25.34
2024-02-29T14:47:51.755Z,24.09
2024-02-29T15:01:13.068Z,25.06
2024-02-29T15:03:47.033Z,25.60
2024-02-29T15:06:20.708Z,25.18
2024-02-29T15:08:54.103Z,25.77
2024-02-29T15:11:27.988Z,24.69
2024-02-29T15:14:02.045Z,24.24
2024-02-29T15:16:37.692Z,24.58
2024-02-29T15:29:57.745Z,22.55
2024-02-29T15:32:32.978Z,22.08
2024-02-29T15:35:15.721Z,22.53
2024-02-29T15:37:48.924Z,22.87
2024-02-29T15:40:28.786Z,22.19
2024-02-29T15:43:02.005Z,21.17
2024-02-29T15:55:54.684Z,20.64
2024-02-29T15:58:35.746Z,20.98
2024-02-29T16:01:09.219Z,20.15
2024-02-29T16:03:42.926Z,20.20
2024-02-29T16:06:16.006Z,20.52
2024-02-29T16:22:31.801Z,20.04
2024-02-29T16:25:06.267Z,20.62
2024-02-29T16:27:39.707Z,19.98
2024-02-29T16:30:13.582Z,20.21
2024-02-29T16:32:47.366Z,20.51
2024-02-29T16:35:21.018Z,19.70
2024-02-29T16:37:58.476Z,19.70
2024-02-29T16:48:11.724Z,18.70
2024-02-29T16:50:51.690Z,19.76
2024-02-29T16:53:26.899Z,19.23
2024-02-29T16:56:00.737Z,18.86
2024-02-29T16:58:34.301Z,19.19
2024-02-29T17:01:07.744Z,19.24
2024-02-29T17:14:57.692Z,18.31
2024-02-29T17:17:31.016Z,18.95
2024-02-29T17:20:04.709Z,19.15
2024-02-29T17:22:37.927Z,19.09
2024-02-29T17:25:13.733Z,19.22
2024-02-29T17:27:46.960Z,18.57
2024-02-29T17:44:02.678Z,19.73
2024-02-29T17:46:35.941Z,20.69
2024-02-29T17:49:09.714Z,19.79
2024-02-29T17:51:44.385Z,19.57
2024-02-29T17:54:17.705Z,20.44
2024-02-29T17:56:52.198Z,20.05
2024-02-29T18:09:42.707Z,21.05
2024-02-29T18:12:22.757Z,21.48
2024-02-29T18:14:55.892Z,20.92
2024-02-29T18:17:29.675Z,20.68
2024-02-29T18:20:03.552Z,21.46
2024-02-29T18:22:36.677Z,21.30
2024-02-29T18:35:48.685Z,23.98
2024-02-29T18:38:21.965Z,23.56
2024-02-29T18:40:55.710Z,23.10
2024-02-29T18:43:29.012Z,25.23
2024-02-29T18:46:06.107Z,23.83
2024-02-29T19:02:44.649Z,25.69
2024-02-29T19:05:24.699Z,26.49
2024-02-29T19:07:57.943Z,26.35
2024-02-29T19:10:31.933Z,26.83
2024-02-29T19:13:05.915Z,25.54
2024-02-29T19:15:39.888Z,25.97
2024-02-29T19:18:15.415Z,26.58
2024-02-29T19:31:03.693Z,27.48
2024-02-29T19:33:45.726Z,27.39
2024-02-29T19:36:18.942Z,27.37
2024-02-29T19:38:52.668Z,27.49
2024-02-29T19:41:26.040Z,27.88
2024-02-29T19:57:41.672Z,28.45
2024-02-29T20:00:16.507Z,28.33
2024-02-29T20:02:49.657Z,28.94
2024-02-29T20:05:22.962Z,28.61
2024-02-29T20:07:56.680Z,29.32
2024-02-29T20:10:30.034Z,28.31
2024-02-29T20:13:05.683Z,28.39
2024-02-29T20:22:50.665Z,28.64
2024-02-29T20:25:30.905Z,28.41
2024-02-29T20:28:07.088Z,28.43
2024-02-29T20:30:40.773Z,27.85
2024-02-29T20:33:14.179Z,27.02
2024-02-29T20:35:47.692Z,27.17
2024-02-29T20:38:20.928Z,27.00
2024-02-29T20:51:11.646Z,27.84
2024-02-29T20:53:51.652Z,27.93
2024-02-29T20:56:25.653Z,27.60
2024-02-29T20:58:58.673Z,27.47
2024-02-29T21:01:32.050Z,27.57
2024-02-29T21:17:47.731Z,30.16
2024-02-29T21:20:20.882Z,30.41
2024-02-29T21:23:00.869Z,31.01
2024-02-29T21:25:34.016Z,30.76
2024-02-29T21:28:07.666Z,30.79
2024-02-29T21:30:40.936Z,30.29
2024-02-29T21:33:16.870Z,31.06
2024-02-29T21:43:01.640Z,30.69
2024-02-29T21:45:41.666Z,31.65
2024-02-29T21:48:17.211Z,32.17
2024-02-29T21:50:50.664Z,32.14
2024-02-29T21:53:24.028Z,33.19
2024-02-29T21:55:57.654Z,32.86
2024-02-29T21:58:31.009Z,34.47
2024-02-29T22:11:21.638Z,34.98
2024-02-29T22:14:01.664Z,34.05
2024-02-29T22:16:41.032Z,33.85
2024-02-29T22:19:21.708Z,34.51
2024-02-29T22:21:54.904Z,33.37
2024-02-29T22:38:10.646Z,33.09
2024-02-29T22:40:44.094Z,32.57
2024-02-29T22:43:18.741Z,32.67
2024-02-29T22:45:51.989Z,32.13
2024-02-29T22:48:25.642Z,31.90
2024-02-29T22:50:59.505Z,32.33
2024-02-29T22:53:34.658Z,33.57
2024-02-29T23:03:26.612Z,32.37
2024-02-29T23:06:06.682Z,32.50
2024-02-29T23:08:41.891Z,32.83
2024-02-29T23:11:15.688Z,32.30
2024-02-29T23:13:48.924Z,32.66
2024-02-29T23:16:22.678Z,32.29
2024-02-29T23:29:35.684Z,32.12
2024-02-29T23:32:09.313Z,31.43
2024-02-29T23:34:42.638Z,31.50
2024-02-29T23:37:15.797Z,32.39
2024-02-29T23:39:55.662Z,30.55
2024-02-29T23:42:28.877Z,30.31
2024-02-29T23:56:04.602Z,30.53
2024-02-29T23:58:47.658Z,30.76
